Time;durP1;ratioP1;P1;durP2;ratioP2;P2;SDS_P1;SDS_P2;PMS_P1;PMS_P2;Temp;Humidity;BMP_temperature;BMP_pressure;BME280_temperature;BME280_humidity;BME280_pressure;Samples;Min_cycle;Max_cycle;Signal;HPM_P1;HPM_P2
2022/08/07 00:01:03;;;;;;;3.22;2.72;;;19.90;76.80;;;;;;4994329;28;20069;-73
2022/08/07 00:03:28;;;;;;;4.97;2.83;;;19.80;77.00;;;;;;4994200;28;20049;-68
2022/08/07 00:05:54;;;;;;;8.70;3.35;;;19.80;77.30;;;;;;4994323;28;20383;-72
2022/08/07 00:08:21;;;;;;;4.10;2.72;;;19.90;77.50;;;;;;4994243;28;20403;-67
2022/08/07 00:10:48;;;;;;;5.47;2.95;;;19.80;77.60;;;;;;4994336;28;20015;-72
2022/08/07 00:13:13;;;;;;;4.82;2.72;;;19.80;77.80;;;;;;4994066;28;20038;-73
2022/08/07 00:15:39;;;;;;;4.70;2.95;;;19.80;77.90;;;;;;4994109;28;20401;-73
2022/08/07 00:18:05;;;;;;;5.65;3.30;;;19.80;78.00;;;;;;4994014;28;20077;-72
2022/08/07 00:20:31;;;;;;;5.25;3.20;;;19.70;78.20;;;;;;4994090;28;20026;-72
2022/08/07 00:22:56;;;;;;;3.78;2.83;;;19.70;78.20;;;;;;4994101;28;20382;-72
2022/08/07 00:25:23;;;;;;;5.10;3.03;;;19.70;78.40;;;;;;4993813;28;20033;-66
2022/08/07 00:27:49;;;;;;;6.63;3.53;;;19.60;78.60;;;;;;4993773;28;20026;-70
2022/08/07 00:30:15;;;;;;;5.53;2.83;;;19.60;78.70;;;;;;4993963;28;20169;-66
2022/08/07 00:32:40;;;;;;;9.13;3.15;;;19.60;78.80;;;;;;4994017;28;20468;-68
2022/08/07 00:35:06;;;;;;;5.57;3.45;;;19.60;78.60;;;;;;4993888;28;20026;-66
2022/08/07 00:37:32;;;;;;;4.65;3.45;;;19.50;79.00;;;;;;4993627;28;20058;-67
2022/08/07 00:39:57;;;;;;;5.88;2.85;;;19.50;79.40;;;;;;4993816;28;20037;-66
2022/08/07 00:42:23;;;;;;;5.97;3.13;;;19.50;79.40;;;;;;4993823;28;20034;-68
2022/08/07 00:44:49;;;;;;;5.85;3.30;;;19.50;79.70;;;;;;4994039;28;20053;-65
2022/08/07 00:47:14;;;;;;;4.53;2.85;;;19.40;79.60;;;;;;4993578;28;20142;-71
2022/08/07 00:49:40;;;;;;;3.40;3.00;;;19.40;79.60;;;;;;4993822;28;20113;-65
2022/08/07 00:52:07;;;;;;;4.50;3.33;;;19.40;79.60;;;;;;4993421;28;20030;-66
2022/08/07 00:54:32;;;;;;;7.05;3.30;;;19.40;79.40;;;;;;4995247;28;20038;-66
2022/08/07 00:56:58;;;;;;;6.18;3.50;;;19.40;79.40;;;;;;4997810;28;20030;-68
2022/08/07 00:59:23;;;;;;;4.07;3.22;;;19.40;79.30;;;;;;4997573;28;20506;-71
2022/08/07 01:01:49;;;;;;;6.97;3.47;;;19.40;79.60;;;;;;4997953;28;20062;-66
2022/08/07 01:04:16;;;;;;;5.32;3.42;;;19.40;79.80;;;;;;4997432;28;20022;-66
2022/08/07 01:06:43;;;;;;;5.68;3.70;;;19.30;80.00;;;;;;4997357;28;20132;-66
2022/08/07 01:09:09;;;;;;;6.10;3.53;;;19.30;80.10;;;;;;4997449;28;20058;-67
2022/08/07 01:11:34;;;;;;;7.60;4.35;;;19.30;80.10;;;;;;4997312;28;20065;-70
2022/08/07 01:14:00;;;;;;;7.60;4.32;;;19.30;80.20;;;;;;4997335;28;20042;-67
2022/08/07 01:16:26;;;;;;;5.72;4.10;;;19.30;79.90;;;;;;4997607;28;20022;-68
2022/08/07 01:18:52;;;;;;;5.47;4.10;;;19.30;80.00;;;;;;4997362;28;20045;-71
2022/08/07 01:21:22;;;;;;;4.32;3.90;;;19.20;80.20;;;;;;4996935;28;20022;-66
2022/08/07 01:23:49;;;;;;;7.03;4.40;;;19.30;80.10;;;;;;4997282;28;20033;-66
2022/08/07 01:26:17;;;;;;;9.13;4.45;;;19.30;80.50;;;;;;4997269;28;20026;-67
2022/08/07 01:28:44;;;;;;;4.57;3.95;;;19.20;80.10;;;;;;4997343;28;20026;-69
2022/08/07 01:31:10;;;;;;;6.68;4.65;;;19.20;80.20;;;;;;4997090;28;20485;-67
2022/08/07 01:33:36;;;;;;;6.65;4.50;;;19.20;80.40;;;;;;4992852;28;20029;-66
2022/08/07 01:36:02;;;;;;;6.82;4.72;;;19.20;80.50;;;;;;4990537;28;20031;-66
2022/08/07 01:38:29;;;;;;;5.72;4.55;;;19.20;80.40;;;;;;4976129;28;20043;-69
2022/08/07 01:41:00;;;;;;;6.88;4.93;;;19.20;80.40;;;;;;4976039;28;20022;-73
2022/08/07 01:43:28;;;;;;;5.63;4.57;;;19.10;80.60;;;;;;4977368;28;20023;-73
2022/08/07 01:45:54;;;;;;;6.75;5.55;;;19.10;80.80;;;;;;4960008;28;20286;-70
2022/08/07 01:48:20;;;;;;;6.78;4.85;;;19.10;80.60;;;;;;4977480;28;20023;-72
2022/08/07 01:50:51;;;;;;;5.88;5.07;;;19.10;80.80;;;;;;4976956;28;20034;-71
2022/08/07 01:53:20;;;;;;;6.97;4.93;;;19.10;81.10;;;;;;4977337;28;20034;-73
2022/08/07 01:55:50;;;;;;;6.78;5.25;;;19.00;81.30;;;;;;4959910;28;20460;-66
2022/08/07 01:58:20;;;;;;;5.60;5.05;;;19.00;81.40;;;;;;4977266;28;20034;-66
2022/08/07 02:00:51;;;;;;;6.15;5.38;;;18.90;81.50;;;;;;4976953;28;20023;-71
2022/08/07 02:03:21;;;;;;;10.20;5.53;;;18.90;81.70;;;;;;4959826;28;20031;-68
2022/08/07 02:05:51;;;;;;;6.65;5.75;;;18.90;81.60;;;;;;4975786;28;20751;-73
2022/08/07 02:08:20;;;;;;;9.65;5.97;;;18.90;81.50;;;;;;4976972;28;20475;-69
2022/08/07 02:10:51;;;;;;;7.32;5.50;;;18.90;81.30;;;;;;4976962;28;20031;-66
2022/08/07 02:13:22;;;;;;;5.72;5.18;;;18.90;81.50;;;;;;4959465;28;20035;-70
2022/08/07 02:15:49;;;;;;;5.97;5.35;;;18.90;81.80;;;;;;4976976;28;20034;-69
2022/08/07 02:18:17;;;;;;;6.05;5.45;;;18.90;81.90;;;;;;4976755;28;20049;-73
2022/08/07 02:20:44;;;;;;;6.82;5.53;;;18.90;82.10;;;;;;4976557;28;20019;-66
2022/08/07 02:23:12;;;;;;;6.28;5.53;;;18.90;82.00;;;;;;4976909;28;20106;-69
2022/08/07 02:25:40;;;;;;;6.55;5.32;;;18.80;82.20;;;;;;4976779;28;20092;-66
2022/08/07 02:28:07;;;;;;;5.30;4.80;;;18.90;82.10;;;;;;4976505;28;20132;-71
2022/08/07 02:30:35;;;;;;;5.78;5.22;;;18.80;82.50;;;;;;4976605;28;20076;-66
2022/08/07 02:33:03;;;;;;;4.75;4.15;;;18.80;82.60;;;;;;4976659;28;20037;-72
2022/08/07 02:35:29;;;;;;;7.70;5.00;;;18.80;82.50;;;;;;4976321;28;20494;-66
2022/08/07 02:37:57;;;;;;;5.75;4.55;;;18.80;82.60;;;;;;4976595;28;20035;-72
2022/08/07 02:40:23;;;;;;;7.07;5.07;;;18.80;82.60;;;;;;4976322;28;20369;-66
2022/08/07 02:42:49;;;;;;;5.30;4.88;;;18.70;83.00;;;;;;4976661;28;20031;-66
2022/08/07 02:45:18;;;;;;;6.60;5.13;;;18.70;83.00;;;;;;4976294;28;20031;-67
2022/08/07 02:47:44;;;;;;;5.88;4.75;;;18.70;82.80;;;;;;4976403;28;20448;-69
2022/08/07 02:50:10;;;;;;;5.68;5.07;;;18.70;83.00;;;;;;4975844;28;20033;-66
2022/08/07 02:52:42;;;;;;;6.10;4.97;;;18.70;83.00;;;;;;4976441;28;20035;-66
2022/08/07 02:55:14;;;;;;;7.55;4.85;;;18.70;83.30;;;;;;4976164;28;20029;-65
2022/08/07 02:57:43;;;;;;;6.18;4.97;;;18.70;83.50;;;;;;4976187;28;20041;-66
2022/08/07 03:00:10;;;;;;;5.55;5.05;;;18.60;83.30;;;;;;4975887;28;20038;-66
2022/08/07 03:02:38;;;;;;;8.32;5.35;;;18.70;83.40;;;;;;4975736;28;20106;-66
2022/08/07 03:05:05;;;;;;;8.90;4.90;;;18.60;84.10;;;;;;4976113;28;20484;-66
2022/08/07 03:07:32;;;;;;;6.78;4.50;;;18.60;84.20;;;;;;4975936;28;20110;-66
2022/08/07 03:09:58;;;;;;;7.40;4.90;;;18.60;83.40;;;;;;4975885;28;20073;-67
2022/08/07 03:12:25;;;;;;;9.45;5.28;;;18.50;83.40;;;;;;4975638;28;20089;-65
2022/08/07 03:14:52;;;;;;;5.78;5.10;;;18.50;83.50;;;;;;4976771;28;20034;-71
2022/08/07 03:17:18;;;;;;;5.97;4.97;;;18.60;83.20;;;;;;4975070;28;20027;-65
2022/08/07 03:19:44;;;;;;;5.93;5.40;;;18.60;83.40;;;;;;4974314;28;20027;-66
2022/08/07 03:22:11;;;;;;;8.93;4.55;;;18.50;83.10;;;;;;4975520;28;20044;-66
2022/08/07 03:24:36;;;;;;;5.70;5.03;;;18.50;83.40;;;;;;4975786;28;20022;-66
2022/08/07 03:27:05;;;;;;;6.75;4.45;;;18.40;83.70;;;;;;4975718;28;20035;-66
2022/08/07 03:29:38;;;;;;;6.05;4.72;;;18.50;83.60;;;;;;4974513;28;20027;-65
2022/08/07 03:32:07;;;;;;;6.18;4.85;;;18.40;83.80;;;;;;4975249;28;20078;-68
2022/08/07 03:34:35;;;;;;;5.85;4.28;;;18.40;83.80;;;;;;4975595;28;20030;-67
2022/08/07 03:37:02;;;;;;;4.65;4.25;;;18.40;83.70;;;;;;4975369;28;20468;-66
2022/08/07 03:39:31;;;;;;;5.85;4.65;;;18.40;83.40;;;;;;4975349;28;20062;-66
2022/08/07 03:41:58;;;;;;;7.07;5.13;;;18.50;83.40;;;;;;4958015;28;20155;-67
2022/08/07 03:44:24;;;;;;;6.45;4.45;;;18.50;83.10;;;;;;4975421;28;20051;-66
2022/08/07 03:46:50;;;;;;;5.20;4.55;;;18.40;83.00;;;;;;4974898;28;20058;-66
2022/08/07 03:49:16;;;;;;;4.90;4.47;;;18.40;83.00;;;;;;4978043;28;20023;-66
2022/08/07 03:51:42;;;;;;;5.55;5.00;;;18.40;83.10;;;;;;4985466;28;20026;-66
2022/08/07 03:54:08;;;;;;;7.00;4.75;;;18.30;83.30;;;;;;4975310;28;20473;-67
2022/08/07 03:56:35;;;;;;;7.13;5.30;;;18.30;83.50;;;;;;4989861;28;20030;-71
2022/08/07 03:59:03;;;;;;;6.45;5.20;;;18.30;83.50;;;;;;4980903;28;20042;-70
2022/08/07 04:01:31;;;;;;;5.13;4.72;;;18.30;83.70;;;;;;4974624;28;20018;-66
2022/08/07 04:03:57;;;;;;;5.22;4.65;;;18.30;83.60;;;;;;4975044;28;20031;-66
2022/08/07 04:06:22;;;;;;;5.68;4.75;;;18.30;83.70;;;;;;4982038;28;20097;-70
2022/08/07 04:08:48;;;;;;;7.32;5.05;;;18.40;83.70;;;;;;4992027;28;20041;-67
2022/08/07 04:11:14;;;;;;;5.75;4.97;;;18.30;83.80;;;;;;4993160;28;20022;-71
2022/08/07 04:13:40;;;;;;;5.53;5.03;;;18.20;84.30;;;;;;4993659;28;20137;-71
2022/08/07 04:16:06;;;;;;;5.63;5.13;;;18.20;84.40;;;;;;4993496;28;20181;-70
2022/08/07 04:18:32;;;;;;;5.88;5.30;;;18.20;84.40;;;;;;4991882;28;20042;-67
2022/08/07 04:20:58;;;;;;;5.53;5.00;;;18.20;84.40;;;;;;4992420;28;20031;-66
2022/08/07 04:23:24;;;;;;;9.05;5.13;;;18.20;84.30;;;;;;4994085;28;20041;-66
2022/08/07 04:25:51;;;;;;;5.93;5.20;;;18.20;85.00;;;;;;4994278;28;20033;-65
2022/08/07 04:28:17;;;;;;;5.93;4.97;;;18.20;84.50;;;;;;4993538;28;20471;-66
2022/08/07 04:30:47;;;;;;;6.25;4.65;;;18.20;84.70;;;;;;4993294;28;20029;-70
2022/08/07 04:33:14;;;;;;;6.40;4.90;;;18.10;84.90;;;;;;4993520;28;20463;-69
2022/08/07 04:35:40;;;;;;;5.88;5.22;;;18.20;84.80;;;;;;4993966;28;20479;-65
2022/08/07 04:38:07;;;;;;;7.43;5.30;;;18.10;85.00;;;;;;4993675;28;20029;-71
2022/08/07 04:40:34;;;;;;;5.88;5.03;;;18.20;84.80;;;;;;4993797;28;20069;-72
2022/08/07 04:43:00;;;;;;;7.20;5.00;;;18.20;84.80;;;;;;4993501;28;20027;-72
2022/08/07 04:45:32;;;;;;;7.63;5.70;;;18.10;85.00;;;;;;4993453;28;20023;-67
2022/08/07 04:48:09;;;;;;;7.15;4.97;;;18.10;85.10;;;;;;4993731;28;20030;-68
2022/08/07 04:50:40;;;;;;;5.03;4.53;;;18.10;85.30;;;;;;4993865;28;20061;-72
2022/08/07 04:53:30;;;;;;;9.45;5.22;;;18.10;85.50;;;;;;4993841;28;20094;-71
2022/08/07 04:56:14;;;;;;;8.82;5.20;;;18.10;85.70;;;;;;4990096;28;20048;-67
2022/08/07 04:58:54;;;;;;;6.20;4.45;;;18.20;85.20;;;;;;4992714;28;20047;-66
2022/08/07 05:01:47;;;;;;;5.32;4.53;;;18.30;85.60;;;;;;4988218;28;20471;-65
2022/08/07 05:04:29;;;;;;;8.25;5.03;;;18.90;83.20;;;;;;4956550;28;20031;-66
2022/08/07 05:07:05;;;;;;;8.60;5.75;;;18.80;83.10;;;;;;4985100;28;20031;-66
2022/08/07 05:09:36;;;;;;;6.22;4.82;;;18.80;83.40;;;;;;4995050;28;20022;-66
2022/08/07 05:12:05;;;;;;;8.93;5.13;;;19.10;82.20;;;;;;5013085;28;20091;-66
2022/08/07 05:14:43;;;;;;;5.60;5.07;;;19.20;81.60;;;;;;5004689;28;20045;-67
2022/08/07 05:17:12;;;;;;;8.23;4.85;;;19.30;81.50;;;;;;4993515;28;20022;-67
2022/08/07 05:19:43;;;;;;;6.65;4.97;;;19.40;81.30;;;;;;4993107;28;20053;-67
2022/08/07 05:22:11;;;;;;;5.72;5.00;;;19.40;81.00;;;;;;4993613;28;20026;-66
2022/08/07 05:24:39;;;;;;;6.05;4.90;;;19.40;81.10;;;;;;4993295;28;20042;-69
2022/08/07 05:27:11;;;;;;;7.28;4.95;;;19.50;81.10;;;;;;4992794;28;20019;-69
2022/08/07 05:29:38;;;;;;;4.97;4.35;;;19.50;81.10;;;;;;4991804;28;20062;-66
2022/08/07 05:32:06;;;;;;;8.65;5.00;;;19.50;81.00;;;;;;4992473;28;20113;-67
2022/08/07 05:34:34;;;;;;;6.35;4.85;;;19.50;81.00;;;;;;4993134;28;20101;-66
2022/08/07 05:37:00;;;;;;;6.82;4.97;;;19.60;80.90;;;;;;4993564;28;20027;-66
2022/08/07 05:39:26;;;;;;;6.85;4.80;;;19.50;81.00;;;;;;4974021;28;20498;-66
2022/08/07 05:41:52;;;;;;;5.22;4.55;;;19.50;81.00;;;;;;4997109;28;20027;-66
2022/08/07 05:44:19;;;;;;;4.93;4.43;;;19.60;81.00;;;;;;4995196;28;20561;-66
2022/08/07 05:46:47;;;;;;;6.18;4.57;;;19.40;81.40;;;;;;4994230;28;20022;-67
2022/08/07 05:49:14;;;;;;;5.90;4.90;;;19.50;81.20;;;;;;4996231;28;20027;-67
2022/08/07 05:51:43;;;;;;;5.30;4.75;;;19.50;81.00;;;;;;4995244;28;20150;-67
2022/08/07 05:54:10;;;;;;;6.07;5.05;;;19.60;81.10;;;;;;4995675;28;20038;-66
2022/08/07 05:56:38;;;;;;;5.55;4.93;;;19.60;81.10;;;;;;4978946;28;20501;-66
2022/08/07 05:59:08;;;;;;;6.72;5.28;;;19.60;81.10;;;;;;4996544;28;20038;-67
2022/08/07 06:01:35;;;;;;;5.95;4.88;;;19.60;81.00;;;;;;4996553;28;20018;-73
2022/08/07 06:04:03;;;;;;;7.82;5.00;;;19.70;81.00;;;;;;4995618;28;20030;-66
2022/08/07 06:06:28;;;;;;;5.70;5.10;;;19.70;81.60;;;;;;4978325;28;20579;-67
2022/08/07 06:08:55;;;;;;;6.43;4.63;;;19.70;82.00;;;;;;4995753;28;20113;-66
2022/08/07 06:11:21;;;;;;;5.82;5.10;;;19.70;81.50;;;;;;4978662;28;20027;-66
2022/08/07 06:13:47;;;;;;;9.75;5.32;;;19.70;81.10;;;;;;4994593;28;20030;-68
2022/08/07 06:16:14;;;;;;;7.25;4.50;;;19.70;80.90;;;;;;4995495;28;20031;-67
2022/08/07 06:18:40;;;;;;;6.55;4.88;;;19.80;81.00;;;;;;4994323;28;20129;-68
2022/08/07 06:21:07;;;;;;;10.40;5.82;;;19.80;81.10;;;;;;4996163;28;20073;-69
2022/08/07 06:23:32;;;;;;;9.15;6.30;;;19.90;81.30;;;;;;4996029;28;20518;-71
2022/08/07 06:25:59;;;;;;;9.90;6.63;;;20.00;80.50;;;;;;4996011;28;20058;-71
2022/08/07 06:28:25;;;;;;;6.45;5.70;;;20.10;80.30;;;;;;4995250;28;20038;-72
2022/08/07 06:30:51;;;;;;;7.97;5.32;;;20.10;79.50;;;;;;4995128;28;20446;-71
2022/08/07 06:33:18;;;;;;;5.38;4.85;;;20.10;78.90;;;;;;4976085;28;20531;-69
2022/08/07 06:35:44;;;;;;;5.15;4.50;;;20.20;78.70;;;;;;4993422;28;20034;-72
2022/08/07 06:38:09;;;;;;;5.40;4.50;;;20.20;78.50;;;;;;4995225;28;20250;-69
2022/08/07 06:40:51;;;;;;;5.55;4.88;;;20.20;78.80;;;;;;4994408;28;20037;-72
2022/08/07 06:43:21;;;;;;;6.72;4.47;;;20.30;78.50;;;;;;4994447;28;20031;-73
2022/08/07 06:45:46;;;;;;;7.70;4.90;;;20.30;78.10;;;;;;4994403;28;20045;-73
2022/08/07 06:48:12;;;;;;;7.20;4.43;;;20.30;77.80;;;;;;4995131;28;20035;-72
2022/08/07 06:50:40;;;;;;;6.93;4.88;;;20.40;78.00;;;;;;4993841;28;20026;-73
2022/08/07 06:53:07;;;;;;;4.53;4.13;;;20.40;78.40;;;;;;4993174;28;20041;-72
2022/08/07 06:55:34;;;;;;;5.63;5.05;;;20.50;78.60;;;;;;4992359;28;20031;-71
2022/08/07 06:58:03;;;;;;;7.55;5.38;;;20.50;77.80;;;;;;4982736;28;20076;-72
2022/08/07 07:00:38;;;;;;;8.32;6.07;;;20.60;77.80;;;;;;4992574;28;20030;-67
2022/08/07 07:03:05;;;;;;;7.88;6.72;;;20.70;78.20;;;;;;4987763;28;20030;-70
2022/08/07 07:05:31;;;;;;;6.70;4.50;;;20.70;78.30;;;;;;4992096;28;20480;-72
2022/08/07 07:07:56;;;;;;;6.75;5.90;;;20.70;78.50;;;;;;4998026;28;20077;-71
2022/08/07 07:10:30;;;;;;;5.65;4.00;;;20.80;78.80;;;;;;4991260;28;20027;-71
2022/08/07 07:13:02;;;;;;;4.78;4.32;;;20.80;78.80;;;;;;4992773;28;20034;-72
2022/08/07 07:15:35;;;;;;;4.88;4.20;;;20.80;79.00;;;;;;4992432;28;20031;-69
2022/08/07 07:18:18;;;;;;;10.45;5.80;;;20.90;79.00;;;;;;4992771;28;20034;-72
2022/08/07 07:20:50;;;;;;;7.63;5.30;;;21.00;79.40;;;;;;4993299;28;20030;-67
2022/08/07 07:23:17;;;;;;;6.75;5.03;;;21.10;79.00;;;;;;4990730;28;20026;-67
2022/08/07 07:25:44;;;;;;;6.32;5.30;;;21.10;78.20;;;;;;4984165;28;20102;-67
2022/08/07 07:28:15;;;;;;;8.80;5.28;;;21.20;77.70;;;;;;4981373;28;20065;-71
2022/08/07 07:30:48;;;;;;;6.30;4.65;;;21.20;77.70;;;;;;4993409;28;20034;-70
2022/08/07 07:33:16;;;;;;;5.43;3.85;;;21.20;77.70;;;;;;4978421;28;20042;-67
2022/08/07 07:35:46;;;;;;;8.15;4.35;;;21.20;78.00;;;;;;4990360;28;20080;-69
2022/08/07 07:38:13;;;;;;;6.57;3.92;;;21.30;76.90;;;;;;4982237;28;20436;-68
2022/08/07 07:40:41;;;;;;;4.47;2.60;;;21.50;76.20;;;;;;4978729;28;20027;-73
2022/08/07 07:43:08;;;;;;;4.90;3.92;;;21.50;77.20;;;;;;4976121;28;20031;-72
2022/08/07 07:45:37;;;;;;;6.75;3.85;;;21.50;76.40;;;;;;4986177;28;20030;-71
2022/08/07 07:48:04;;;;;;;5.38;4.40;;;21.50;76.60;;;;;;4999350;28;20030;-72
2022/08/07 07:50:30;;;;;;;6.63;3.22;;;21.70;76.10;;;;;;4990655;28;20101;-73
2022/08/07 07:52:57;;;;;;;4.95;2.65;;;21.70;76.40;;;;;;4991570;28;20026;-73
2022/08/07 07:55:25;;;;;;;4.43;3.08;;;21.70;76.40;;;;;;4992095;28;20019;-72
2022/08/07 07:57:51;;;;;;;4.05;2.38;;;21.70;76.20;;;;;;4991685;28;20034;-69
2022/08/07 08:00:17;;;;;;;4.35;3.95;;;21.70;75.90;;;;;;4992834;28;20518;-72
2022/08/07 08:02:46;;;;;;;5.35;3.78;;;21.90;75.30;;;;;;4991062;28;20027;-73
2022/08/07 08:05:15;;;;;;;4.95;3.00;;;22.00;75.30;;;;;;4975333;28;20062;-72
2022/08/07 08:07:41;;;;;;;4.10;2.80;;;22.10;73.60;;;;;;4985499;28;20026;-73
2022/08/07 08:10:08;;;;;;;3.65;1.80;;;22.20;70.70;;;;;;4989157;28;20446;-73
2022/08/07 08:12:34;;;;;;;4.32;2.55;;;22.20;72.60;;;;;;4992293;28;20026;-71
2022/08/07 08:15:01;;;;;;;4.47;2.90;;;22.20;72.70;;;;;;4991167;28;20034;-72
2022/08/07 08:17:27;;;;;;;3.88;2.53;;;22.30;73.10;;;;;;4984890;28;20134;-73
2022/08/07 08:19:57;;;;;;;5.30;3.90;;;22.30;73.50;;;;;;4969733;28;20023;-72
2022/08/07 08:27:57;;;;;;;5.55;3.00;;;22.60;70.80;;;;;;4993454;28;20129;-69
2022/08/07 08:30:23;;;;;;;3.92;3.10;;;22.70;70.50;;;;;;4990761;28;20026;-73
2022/08/07 08:32:54;;;;;;;3.00;2.50;;;22.70;70.60;;;;;;4991714;28;20027;-68
2022/08/07 08:35:23;;;;;;;4.88;2.60;;;22.70;70.70;;;;;;4981583;28;20030;-69
2022/08/07 08:37:50;;;;;;;4.55;2.50;;;22.70;70.60;;;;;;4979530;28;20112;-72
2022/08/07 08:40:26;;;;;;;4.97;2.95;;;22.70;70.70;;;;;;4980427;28;20092;-72
2022/08/07 08:42:58;;;;;;;6.45;2.30;;;22.90;68.70;;;;;;4988958;28;20093;-73
2022/08/07 08:45:34;;;;;;;;;;;22.90;69.10;;;;;;4986524;28;20122;-71
2022/08/07 08:48:17;;;;;;;4.72;1.83;;;22.90;69.40;;;;;;4988161;28;19907;-73
2022/08/07 08:51:01;;;;;;;3.00;1.73;;;23.00;67.70;;;;;;4992274;28;20038;-69
2022/08/07 08:53:43;;;;;;;2.67;1.67;;;22.90;68.90;;;;;;4988302;28;20023;-73
2022/08/07 08:56:18;;;;;;;2.00;1.60;;;22.90;68.50;;;;;;4991516;28;20446;-68
2022/08/07 08:59:08;;;;;;;5.80;1.90;;;23.10;67.60;;;;;;4991193;28;20518;-70
2022/08/07 09:01:52;;;;;;;4.30;1.85;;;23.00;68.50;;;;;;4989831;28;20023;-68
2022/08/07 09:04:43;;;;;;;4.82;2.13;;;23.10;66.70;;;;;;4992677;28;20081;-72
2022/08/07 09:07:24;;;;;;;7.32;2.30;;;23.20;67.50;;;;;;4992276;28;20061;-71
2022/08/07 09:10:20;;;;;;;4.00;1.75;;;23.10;68.30;;;;;;4990455;28;20439;-70
2022/08/07 09:12:51;;;;;;;3.47;2.00;;;23.20;66.20;;;;;;4988109;28;20027;-69
2022/08/07 09:15:30;;;;;;;4.90;2.30;;;23.30;65.20;;;;;;4986649;28;20395;-68
2022/08/07 09:18:21;;;;;;;3.92;1.90;;;23.30;65.30;;;;;;4991697;28;20372;-73
2022/08/07 09:21:02;;;;;;;3.20;2.10;;;23.30;64.50;;;;;;4991181;28;20056;-70
2022/08/07 09:23:49;;;;;;;5.85;1.65;;;23.40;64.20;;;;;;4985616;28;20014;-69
2022/08/07 09:26:37;;;;;;;4.35;1.95;;;23.30;65.40;;;;;;4988306;28;20487;-73
2022/08/07 09:29:19;;;;;;;4.13;1.80;;;23.30;63.40;;;;;;4985216;28;20483;-71
2022/08/07 09:31:50;;;;;;;4.63;1.75;;;23.30;63.10;;;;;;4994636;28;20036;-72
2022/08/07 09:34:21;;;;;;;3.63;1.60;;;23.30;64.50;;;;;;4981955;28;20038;-72
2022/08/07 09:37:10;;;;;;;3.53;1.92;;;23.30;67.00;;;;;;4982411;28;20038;-71
2022/08/07 09:39:56;;;;;;;5.50;2.08;;;23.40;64.70;;;;;;4990728;28;20034;-66
2022/08/07 09:42:51;;;;;;;4.43;1.80;;;23.40;63.40;;;;;;4985920;28;20018;-73
2022/08/07 09:45:24;;;;;;;4.05;1.75;;;23.30;64.00;;;;;;4984009;28;20045;-68
2022/08/07 09:48:14;;;;;;;3.83;1.95;;;23.40;63.50;;;;;;4986295;28;20030;-72
2022/08/07 09:51:03;;;;;;;3.40;1.85;;;23.40;61.40;;;;;;4991626;28;20026;-70
2022/08/07 09:53:37;;;;;;;3.40;1.95;;;23.40;61.40;;;;;;4981679;28;20026;-71
2022/08/07 09:56:26;;;;;;;4.57;2.25;;;23.40;65.70;;;;;;4987099;28;20564;-67
2022/08/07 09:59:24;;;;;;;3.30;2.17;;;23.40;66.60;;;;;;4980439;28;20092;-71
2022/08/07 10:02:11;;;;;;;3.78;2.17;;;23.40;63.10;;;;;;4987829;28;20031;-73
2022/08/07 10:04:48;;;;;;;3.65;2.35;;;23.40;63.80;;;;;;4989566;28;20034;-70
2022/08/07 10:07:32;;;;;;;4.07;2.33;;;23.40;62.20;;;;;;4984727;28;20061;-71
2022/08/07 10:10:12;;;;;;;3.95;2.10;;;23.50;61.00;;;;;;4997512;28;20113;-73
2022/08/07 10:13:06;;;;;;;5.38;2.15;;;23.50;62.60;;;;;;4997514;28;20042;-74
2022/08/07 10:15:37;;;;;;;2.40;1.67;;;23.50;64.00;;;;;;5000442;28;20026;-68
2022/08/07 10:18:21;;;;;;;4.45;1.88;;;23.50;59.90;;;;;;4989325;28;20019;-72
2022/08/07 10:21:32;;;;;;;3.90;2.03;;;23.50;59.40;;;;;;4985530;28;20018;-70
2022/08/07 10:24:21;;;;;;;5.80;2.83;;;23.50;65.50;;;;;;4991969;28;20185;-73
2022/08/07 10:27:23;;;;;;;6.18;2.33;;;23.50;67.70;;;;;;4990008;28;20038;-71
2022/08/07 10:30:05;;;;;;;3.38;1.90;;;23.50;64.70;;;;;;4985229;28;20057;-70
2022/08/07 10:33:13;;;;;;;4.05;1.85;;;23.50;65.40;;;;;;4990149;28;20045;-71
2022/08/07 10:36:08;;;;;;;2.95;1.40;;;23.60;58.20;;;;;;4989559;28;20034;-71
2022/08/07 10:38:59;;;;;;;3.47;1.65;;;23.60;59.50;;;;;;4987756;28;20034;-72
2022/08/07 10:41:35;;;;;;;3.40;1.60;;;23.60;58.20;;;;;;4986389;28;20108;-69
2022/08/07 10:44:46;;;;;;;2.15;1.58;;;23.60;62.90;;;;;;4991173;28;20032;-73
2022/08/07 10:47:22;;;;;;;4.35;1.85;;;23.60;56.00;;;;;;4984147;28;21435;-72
2022/08/07 10:50:07;;;;;;;3.05;1.80;;;23.60;56.80;;;;;;4989417;28;20259;-68
2022/08/07 10:52:38;;;;;;;5.25;2.13;;;23.60;59.40;;;;;;4984388;28;20383;-71
2022/08/07 10:55:17;;;;;;;3.65;2.00;;;23.60;57.30;;;;;;4983357;28;20039;-72
2022/08/07 10:57:55;;;;;;;1.50;1.40;;;23.60;57.00;;;;;;4965363;28;20093;-70
2022/08/07 11:00:22;;;;;;;2.45;1.48;;;23.60;56.90;;;;;;4984348;28;20049;-72
2022/08/07 11:03:02;;;;;;;3.40;1.60;;;23.60;57.40;;;;;;4962547;28;20050;-74
2022/08/07 11:05:30;;;;;;;3.10;1.20;;;23.60;62.20;;;;;;4987866;28;20475;-72
2022/08/07 11:08:18;;;;;;;1.55;1.10;;;23.70;56.40;;;;;;4988810;28;20034;-66
2022/08/07 11:10:58;;;;;;;5.30;1.92;;;23.60;56.30;;;;;;4987634;28;20073;-73
2022/08/07 11:13:45;;;;;;;5.25;1.85;;;23.60;61.70;;;;;;4989521;28;20089;-73
2022/08/07 11:16:22;;;;;;;4.60;1.50;;;23.60;59.10;;;;;;4988820;28;20094;-73
2022/08/07 11:18:54;;;;;;;2.85;1.33;;;23.70;54.80;;;;;;4992140;28;20120;-75
2022/08/07 11:21:53;;;;;;;3.40;1.40;;;23.70;54.10;;;;;;4992179;28;20030;-72
2022/08/07 11:24:21;;;;;;;2.65;1.20;;;23.70;55.90;;;;;;4991925;28;20034;-70
2022/08/07 11:27:00;;;;;;;2.35;1.30;;;23.70;56.00;;;;;;4987534;28;20053;-71
2022/08/07 11:29:44;;;;;;;3.30;1.25;;;23.60;55.90;;;;;;4968417;28;20030;-73
2022/08/07 11:32:16;;;;;;;3.60;1.20;;;23.60;55.80;;;;;;4987947;28;20050;-71
2022/08/07 11:34:55;;;;;;;3.05;0.95;;;23.60;57.30;;;;;;4991165;28;20467;-71
2022/08/07 11:37:55;;;;;;;3.03;1.40;;;23.60;54.20;;;;;;4989156;28;20027;-75
2022/08/07 11:40:57;;;;;;;2.92;1.60;;;23.70;57.60;;;;;;4985884;28;20042;-74
2022/08/07 11:43:30;;;;;;;3.13;1.30;;;23.70;55.20;;;;;;4910080;29;20032;-73
2022/08/07 11:46:05;;;;;;;3.30;1.25;;;23.70;56.20;;;;;;4971361;28;20050;-73
2022/08/07 11:48:52;;;;;;;2.88;1.38;;;23.70;57.50;;;;;;4987873;28;20029;-72
2022/08/07 11:51:24;;;;;;;4.85;1.60;;;23.70;61.90;;;;;;4977821;28;20049;-73
2022/08/07 11:54:13;;;;;;;3.42;1.40;;;23.70;61.10;;;;;;4987792;28;20022;-65
2022/08/07 11:57:21;;;;;;;3.10;1.25;;;23.80;57.40;;;;;;4945963;28;20061;-73
2022/08/07 12:00:10;;;;;;;4.75;1.02;;;23.70;59.20;;;;;;4956781;28;20130;-72
2022/08/07 12:03:09;;;;;;;3.38;1.40;;;23.70;54.90;;;;;;4982377;28;20426;-72
2022/08/07 12:06:20;;;;;;;2.83;0.85;;;23.70;54.20;;;;;;4988320;28;20037;-73
2022/08/07 12:09:00;;;;;;;1.52;0.82;;;23.70;53.50;;;;;;4987300;28;20026;-71
2022/08/07 12:11:47;;;;;;;5.82;1.17;;;23.80;53.30;;;;;;4982365;28;20502;-71
2022/08/07 12:14:19;;;;;;;3.63;1.60;;;23.80;58.30;;;;;;4985860;28;20042;-73
2022/08/07 12:16:56;;;;;;;2.53;1.42;;;23.70;54.60;;;;;;4985615;28;20026;-73
2022/08/07 12:19:30;;;;;;;2.95;1.33;;;23.70;55.40;;;;;;4988063;28;20387;-72
2022/08/07 12:22:07;;;;;;;2.30;1.23;;;23.60;54.20;;;;;;4992200;28;20034;-71
2022/08/07 12:27:52;;;;;;;2.65;1.00;;;23.70;55.50;;;;;;4985133;28;20041;-66
2022/08/07 12:30:20;;;;;;;3.40;1.50;;;23.80;55.60;;;;;;4982109;28;20030;-72
2022/08/07 12:32:53;;;;;;;7.53;1.38;;;23.80;57.20;;;;;;4981274;28;20033;-69
2022/08/07 12:35:21;;;;;;;4.50;1.63;;;23.80;57.00;;;;;;4995165;28;20037;-73
2022/08/07 12:37:49;;;;;;;3.85;1.50;;;23.80;57.40;;;;;;4990551;28;20062;-73
2022/08/07 12:40:22;;;;;;;4.53;1.58;;;23.80;56.50;;;;;;4985847;28;20030;-73
2022/08/07 12:42:51;;;;;;;10.60;2.20;;;23.90;56.70;;;;;;4987037;28;20109;-69
2022/08/07 12:45:22;;;;;;;3.90;1.73;;;23.80;56.20;;;;;;4993171;28;20042;-74
2022/08/07 12:48:31;;;;;;;6.72;2.00;;;23.90;56.40;;;;;;4993657;28;20046;-73
2022/08/07 12:51:11;;;;;;;7.78;1.92;;;23.90;56.40;;;;;;4891957;29;20116;-68
2022/08/07 12:54:03;;;;;;;3.03;1.83;;;23.90;57.70;;;;;;4889427;29;20032;-70
2022/08/07 12:56:38;;;;;;;4.20;1.67;;;23.80;56.00;;;;;;4962403;28;20050;-71
2022/08/07 12:59:07;;;;;;;6.10;1.67;;;23.90;56.60;;;;;;4980769;28;20046;-71
2022/08/07 13:01:38;;;;;;;11.57;1.88;;;23.90;57.30;;;;;;4989453;28;20058;-73
2022/08/07 13:04:16;;;;;;;5.40;1.67;;;23.90;56.80;;;;;;4988164;28;20468;-73
2022/08/07 13:06:56;;;;;;;3.88;1.20;;;23.90;56.70;;;;;;4983228;28;20026;-74
2022/08/07 13:09:31;;;;;;;7.40;1.38;;;23.90;55.30;;;;;;4968646;28;20045;-73
2022/08/07 13:12:34;;;;;;;10.43;1.95;;;23.90;55.80;;;;;;4986826;28;20081;-68
2022/08/07 13:15:32;;;;;;;5.40;1.45;;;24.00;58.30;;;;;;4954126;28;20074;-69
2022/08/07 13:18:26;;;;;;;3.63;1.50;;;23.90;57.30;;;;;;4983739;28;20577;-73
2022/08/07 13:21:17;;;;;;;6.43;1.10;;;23.90;58.70;;;;;;4979008;28;20069;-75
2022/08/07 13:24:20;;;;;;;6.20;1.20;;;24.00;55.50;;;;;;4985201;28;20837;-70
2022/08/07 13:27:04;;;;;;;2.97;1.00;;;23.90;53.80;;;;;;4977681;28;20416;-76